sensor_id;sensor_type;location;lat;lon;timestamp;pressure;altitude;pressure_sealevel;temperature;humidity
3440;BME280;1733;42.286;22.690;2023-05-25T00:01:29;95526.44;;;16.71;100.00
3440;BME280;1733;42.286;22.690;2023-05-25T00:03:58;95527.44;;;16.75;100.00
3440;BME280;1733;42.286;22.690;2023-05-25T00:06:26;95531.19;;;16.69;100.00
3440;BME280;1733;42.286;22.690;2023-05-25T00:08:54;95539.72;;;16.71;100.00
3440;BME280;1733;42.286;22.690;2023-05-25T00:11:22;95539.13;;;16.69;100.00
3440;BME280;1733;42.286;22.690;2023-05-25T00:13:49;95529.66;;;16.58;100.00
3440;BME280;1733;42.286;22.690;2023-05-25T00:16:17;95540.84;;;16.49;100.00
3440;BME280;1733;42.286;22.690;2023-05-25T00:18:44;95537.44;;;16.39;100.00
3440;BME280;1733;42.286;22.690;2023-05-25T00:21:12;95540.41;;;16.32;100.00
3440;BME280;1733;42.286;22.690;2023-05-25T00:23:40;95532.47;;;16.22;100.00
3440;BME280;1733;42.286;22.690;2023-05-25T00:26:07;95537.78;;;16.17;100.00
3440;BME280;1733;42.286;22.690;2023-05-25T00:28:34;95541.53;;;16.16;100.00
3440;BME280;1733;42.286;22.690;2023-05-25T00:31:01;95536.25;;;16.06;100.00
3440;BME280;1733;42.286;22.690;2023-05-25T00:33:29;95545.53;;;16.03;100.00
3440;BME280;1733;42.286;22.690;2023-05-25T00:35:56;95543.41;;;16.00;100.00
3440;BME280;1733;42.286;22.690;2023-05-25T00:38:23;95553.50;;;16.03;100.00
3440;BME280;1733;42.286;22.690;2023-05-25T00:40:53;95549.53;;;16.01;100.00
3440;BME280;1733;42.286;22.690;2023-05-25T00:43:20;95557.50;;;15.95;100.00
3440;BME280;1733;42.286;22.690;2023-05-25T00:45:48;95552.72;;;15.92;100.00
3440;BME280;1733;42.286;22.690;2023-05-25T00:48:15;95558.31;;;15.86;100.00
3440;BME280;1733;42.286;22.690;2023-05-25T00:50:43;95552.50;;;15.79;100.00
3440;BME280;1733;42.286;22.690;2023-05-25T00:53:12;95550.38;;;15.70;100.00
3440;BME280;1733;42.286;22.690;2023-05-25T00:55:43;95559.16;;;15.66;100.00
3440;BME280;1733;42.286;22.690;2023-05-25T00:58:12;95562.34;;;15.63;100.00
3440;BME280;1733;42.286;22.690;2023-05-25T01:00:44;95554.34;;;15.53;100.00
3440;BME280;1733;42.286;22.690;2023-05-25T01:03:14;95545.91;;;15.51;100.00
3440;BME280;1733;42.286;22.690;2023-05-25T01:05:47;95549.34;;;15.51;100.00
3440;BME280;1733;42.286;22.690;2023-05-25T01:08:19;95551.47;;;15.49;100.00
3440;BME280;1733;42.286;22.690;2023-05-25T01:10:47;95550.13;;;15.47;100.00
3440;BME280;1733;42.286;22.690;2023-05-25T01:13:16;95550.41;;;15.40;100.00
3440;BME280;1733;42.286;22.690;2023-05-25T01:15:44;95548.03;;;15.49;100.00
3440;BME280;1733;42.286;22.690;2023-05-25T01:18:13;95550.69;;;15.49;100.00
3440;BME280;1733;42.286;22.690;2023-05-25T01:20:51;95557.28;;;15.56;100.00
3440;BME280;1733;42.286;22.690;2023-05-25T01:23:24;95552.53;;;15.63;100.00
3440;BME280;1733;42.286;22.690;2023-05-25T01:25:54;95543.75;;;15.48;100.00
3440;BME280;1733;42.286;22.690;2023-05-25T01:28:27;95542.72;;;15.38;100.00
3440;BME280;1733;42.286;22.690;2023-05-25T01:30:55;95543.25;;;15.40;100.00
3440;BME280;1733;42.286;22.690;2023-05-25T01:33:23;95548.28;;;15.32;100.00
3440;BME280;1733;42.286;22.690;2023-05-25T01:35:52;95552.00;;;15.26;100.00
3440;BME280;1733;42.286;22.690;2023-05-25T01:38:19;95548.28;;;15.22;100.00
3440;BME280;1733;42.286;22.690;2023-05-25T01:40:46;95556.22;;;15.16;100.00
3440;BME280;1733;42.286;22.690;2023-05-25T01:43:13;95543.78;;;15.07;100.00
3440;BME280;1733;42.286;22.690;2023-05-25T01:45:39;95552.25;;;15.09;100.00
3440;BME280;1733;42.286;22.690;2023-05-25T01:48:19;95536.09;;;14.95;100.00
3440;BME280;1733;42.286;22.690;2023-05-25T01:50:52;95539.00;;;14.94;100.00
3440;BME280;1733;42.286;22.690;2023-05-25T01:53:22;95539.28;;;14.97;100.00
3440;BME280;1733;42.286;22.690;2023-05-25T01:55:54;95550.94;;;14.96;100.00
3440;BME280;1733;42.286;22.690;2023-05-25T01:58:25;95539.28;;;14.92;100.00
3440;BME280;1733;42.286;22.690;2023-05-25T02:00:53;95542.69;;;14.82;100.00
3440;BME280;1733;42.286;22.690;2023-05-25T02:03:21;95544.53;;;14.77;100.00
3440;BME280;1733;42.286;22.690;2023-05-25T02:05:48;95547.44;;;14.75;100.00
3440;BME280;1733;42.286;22.690;2023-05-25T02:08:16;95550.59;;;14.72;100.00
3440;BME280;1733;42.286;22.690;2023-05-25T02:10:45;95548.50;;;14.69;100.00
3440;BME280;1733;42.286;22.690;2023-05-25T02:13:12;95551.41;;;14.78;100.00
3440;BME280;1733;42.286;22.690;2023-05-25T02:15:38;95547.41;;;14.65;100.00
3440;BME280;1733;42.286;22.690;2023-05-25T02:18:05;95551.63;;;14.61;100.00
3440;BME280;1733;42.286;22.690;2023-05-25T02:20:33;95547.13;;;14.51;100.00
3440;BME280;1733;42.286;22.690;2023-05-25T02:23:01;95556.63;;;14.47;100.00
3440;BME280;1733;42.286;22.690;2023-05-25T02:25:29;95555.78;;;14.42;100.00
3440;BME280;1733;42.286;22.690;2023-05-25T02:27:56;95563.22;;;14.40;100.00
3440;BME280;1733;42.286;22.690;2023-05-25T02:30:23;95560.81;;;14.38;100.00
3440;BME280;1733;42.286;22.690;2023-05-25T02:32:50;95571.13;;;14.34;100.00
3440;BME280;1733;42.286;22.690;2023-05-25T02:35:18;95570.81;;;14.26;100.00
3440;BME280;1733;42.286;22.690;2023-05-25T02:37:45;95574.25;;;14.21;100.00
3440;BME280;1733;42.286;22.690;2023-05-25T02:40:12;95580.56;;;14.15;100.00
3440;BME280;1733;42.286;22.690;2023-05-25T02:42:40;95581.59;;;14.09;100.00
3440;BME280;1733;42.286;22.690;2023-05-25T02:45:08;95590.53;;;14.03;100.00
3440;BME280;1733;42.286;22.690;2023-05-25T02:47:36;95595.28;;;14.01;100.00
3440;BME280;1733;42.286;22.690;2023-05-25T02:50:03;95590.53;;;13.98;100.00
3440;BME280;1733;42.286;22.690;2023-05-25T02:52:30;95586.00;;;13.93;100.00
3440;BME280;1733;42.286;22.690;2023-05-25T02:54:57;95587.81;;;13.88;100.00
3440;BME280;1733;42.286;22.690;2023-05-25T02:57:24;95589.09;;;13.85;100.00
3440;BME280;1733;42.286;22.690;2023-05-25T02:59:52;95596.50;;;13.83;100.00
3440;BME280;1733;42.286;22.690;2023-05-25T03:02:19;95601.78;;;13.83;100.00
3440;BME280;1733;42.286;22.690;2023-05-25T03:04:49;95597.28;;;13.83;100.00
3440;BME280;1733;42.286;22.690;2023-05-25T03:07:18;95595.19;;;13.85;100.00
3440;BME280;1733;42.286;22.690;2023-05-25T03:09:44;95598.09;;;13.84;100.00
3440;BME280;1733;42.286;22.690;2023-05-25T03:12:11;95597.84;;;13.91;100.00
3440;BME280;1733;42.286;22.690;2023-05-25T03:14:38;95599.19;;;13.88;100.00
3440;BME280;1733;42.286;22.690;2023-05-25T03:17:06;95607.41;;;13.97;100.00
3440;BME280;1733;42.286;22.690;2023-05-25T03:19:33;95607.81;;;14.26;100.00
3440;BME280;1733;42.286;22.690;2023-05-25T03:22:01;95614.47;;;14.28;100.00
3440;BME280;1733;42.286;22.690;2023-05-25T03:24:28;95616.06;;;14.29;100.00
3440;BME280;1733;42.286;22.690;2023-05-25T03:26:55;95619.19;;;14.21;100.00
3440;BME280;1733;42.286;22.690;2023-05-25T03:29:22;95610.97;;;14.18;100.00
3440;BME280;1733;42.286;22.690;2023-05-25T03:31:48;95621.00;;;14.10;100.00
3440;BME280;1733;42.286;22.690;2023-05-25T03:34:16;95620.19;;;14.10;100.00
3440;BME280;1733;42.286;22.690;2023-05-25T03:36:43;95620.19;;;14.10;100.00
3440;BME280;1733;42.286;22.690;2023-05-25T03:39:11;95617.63;;;14.25;100.00
3440;BME280;1733;42.286;22.690;2023-05-25T03:41:38;95621.38;;;14.34;100.00
3440;BME280;1733;42.286;22.690;2023-05-25T03:44:05;95616.69;;;14.47;100.00
3440;BME280;1733;42.286;22.690;2023-05-25T03:46:31;95623.31;;;14.54;100.00
3440;BME280;1733;42.286;22.690;2023-05-25T03:48:58;95627.38;;;14.67;100.00
3440;BME280;1733;42.286;22.690;2023-05-25T03:51:26;95628.44;;;14.76;100.00
3440;BME280;1733;42.286;22.690;2023-05-25T03:53:53;95637.72;;;14.89;100.00
3440;BME280;1733;42.286;22.690;2023-05-25T03:56:20;95641.75;;;15.02;100.00
3440;BME280;1733;42.286;22.690;2023-05-25T03:58:47;95640.47;;;15.14;100.00
3440;BME280;1733;42.286;22.690;2023-05-25T04:01:14;95654.78;;;15.39;100.00
3440;BME280;1733;42.286;22.690;2023-05-25T04:03:41;95652.97;;;15.55;100.00
3440;BME280;1733;42.286;22.690;2023-05-25T04:06:07;95653.78;;;15.65;100.00
3440;BME280;1733;42.286;22.690;2023-05-25T04:08:35;95663.34;;;15.72;100.00
3440;BME280;1733;42.286;22.690;2023-05-25T04:11:05;95659.06;;;15.81;100.00
3440;BME280;1733;42.286;22.690;2023-05-25T04:13:31;95658.56;;;15.84;100.00
3440;BME280;1733;42.286;22.690;2023-05-25T04:16:00;95659.31;;;16.00;100.00
3440;BME280;1733;42.286;22.690;2023-05-25T04:18:27;95659.31;;;16.20;100.00
3440;BME280;1733;42.286;22.690;2023-05-25T04:20:54;95660.31;;;16.39;100.00
3440;BME280;1733;42.286;22.690;2023-05-25T04:23:21;95670.34;;;16.58;100.00
3440;BME280;1733;42.286;22.690;2023-05-25T04:25:49;95669.81;;;16.71;100.00
3440;BME280;1733;42.286;22.690;2023-05-25T04:28:16;95667.13;;;16.66;100.00
3440;BME280;1733;42.286;22.690;2023-05-25T04:30:43;95667.94;;;16.77;100.00
3440;BME280;1733;42.286;22.690;2023-05-25T04:33:10;95669.97;;;16.95;100.00
3440;BME280;1733;42.286;22.690;2023-05-25T04:35:36;95686.66;;;17.06;100.00
3440;BME280;1733;42.286;22.690;2023-05-25T04:38:05;95691.13;;;17.10;100.00
3440;BME280;1733;42.286;22.690;2023-05-25T04:40:31;95694.09;;;17.03;100.00
3440;BME280;1733;42.286;22.690;2023-05-25T04:43:01;95691.09;;;17.15;100.00
3440;BME280;1733;42.286;22.690;2023-05-25T04:45:27;95687.94;;;17.13;100.00
3440;BME280;1733;42.286;22.690;2023-05-25T04:47:56;95699.34;;;17.14;100.00
3440;BME280;1733;42.286;22.690;2023-05-25T04:50:25;95696.72;;;17.09;100.00
3440;BME280;1733;42.286;22.690;2023-05-25T04:52:52;95695.94;;;17.03;100.00
3440;BME280;1733;42.286;22.690;2023-05-25T04:55:19;95662.06;;;16.80;100.00
3440;BME280;1733;42.286;22.690;2023-05-25T04:57:46;95691.44;;;17.03;100.00
3440;BME280;1733;42.286;22.690;2023-05-25T05:00:15;95690.63;;;17.08;100.00
3440;BME280;1733;42.286;22.690;2023-05-25T05:02:43;95693.56;;;17.07;100.00
3440;BME280;1733;42.286;22.690;2023-05-25T05:05:10;95693.53;;;17.12;100.00
3440;BME280;1733;42.286;22.690;2023-05-25T05:07:37;95702.03;;;17.09;100.00
3440;BME280;1733;42.286;22.690;2023-05-25T05:10:04;95694.03;;;17.19;100.00
3440;BME280;1733;42.286;22.690;2023-05-25T05:12:31;95696.88;;;17.27;100.00
3440;BME280;1733;42.286;22.690;2023-05-25T05:14:57;95693.28;;;17.52;100.00
3440;BME280;1733;42.286;22.690;2023-05-25T05:17:26;95698.69;;;17.81;100.00
3440;BME280;1733;42.286;22.690;2023-05-25T05:19:54;95706.78;;;18.00;100.00
3440;BME280;1733;42.286;22.690;2023-05-25T05:22:21;95705.63;;;18.12;100.00
3440;BME280;1733;42.286;22.690;2023-05-25T05:24:48;95712.03;;;18.11;100.00
3440;BME280;1733;42.286;22.690;2023-05-25T05:27:15;95708.53;;;18.15;100.00
3440;BME280;1733;42.286;22.690;2023-05-25T05:29:42;95712.88;;;18.35;100.00
3440;BME280;1733;42.286;22.690;2023-05-25T05:32:09;95711.59;;;18.56;100.00
3440;BME280;1733;42.286;22.690;2023-05-25T05:34:37;95706.06;;;18.77;100.00
3440;BME280;1733;42.286;22.690;2023-05-25T05:37:04;95705.38;;;18.90;100.00
3440;BME280;1733;42.286;22.690;2023-05-25T05:39:31;95706.19;;;18.91;100.00
3440;BME280;1733;42.286;22.690;2023-05-25T05:41:58;95696.59;;;18.90;100.00
3440;BME280;1733;42.286;22.690;2023-05-25T05:44:25;95705.16;;;19.10;100.00
3440;BME280;1733;42.286;22.690;2023-05-25T05:46:52;95703.22;;;19.16;100.00
3440;BME280;1733;42.286;22.690;2023-05-25T05:49:24;95697.88;;;19.35;100.00
3440;BME280;1733;42.286;22.690;2023-05-25T05:51:52;95703.09;;;19.45;100.00
3440;BME280;1733;42.286;22.690;2023-05-25T05:54:19;95702.31;;;19.45;100.00
3440;BME280;1733;42.286;22.690;2023-05-25T05:56:46;95700.50;;;19.40;100.00
3440;BME280;1733;42.286;22.690;2023-05-25T05:59:13;95698.50;;;19.70;100.00
3440;BME280;1733;42.286;22.690;2023-05-25T06:01:40;95707.78;;;19.91;100.00
3440;BME280;1733;42.286;22.690;2023-05-25T06:04:08;95704.50;;;19.94;100.00
3440;BME280;1733;42.286;22.690;2023-05-25T06:06:35;95694.78;;;20.17;100.00
3440;BME280;1733;42.286;22.690;2023-05-25T06:09:04;95710.72;;;20.55;100.00
3440;BME280;1733;42.286;22.690;2023-05-25T06:11:31;95702.34;;;20.89;100.00
3440;BME280;1733;42.286;22.690;2023-05-25T06:13:59;95699.25;;;21.09;99.47
3440;BME280;1733;42.286;22.690;2023-05-25T06:16:26;95710.25;;;21.35;88.49
3440;BME280;1733;42.286;22.690;2023-05-25T06:18:53;95704.53;;;21.64;86.38
3440;BME280;1733;42.286;22.690;2023-05-25T06:21:20;95697.09;;;21.61;84.67
3440;BME280;1733;42.286;22.690;2023-05-25T06:23:47;95709.13;;;21.72;82.02
3440;BME280;1733;42.286;22.690;2023-05-25T06:26:15;95709.56;;;21.66;80.24
3440;BME280;1733;42.286;22.690;2023-05-25T06:28:42;95709.03;;;21.77;82.49
3440;BME280;1733;42.286;22.690;2023-05-25T06:31:08;95704.28;;;21.97;81.64
3440;BME280;1733;42.286;22.690;2023-05-25T06:33:35;95721.81;;;21.81;79.22
3440;BME280;1733;42.286;22.690;2023-05-25T06:36:02;95712.19;;;21.57;78.56
3440;BME280;1733;42.286;22.690;2023-05-25T06:38:29;95707.78;;;21.61;79.10
3440;BME280;1733;42.286;22.690;2023-05-25T06:40:57;95711.34;;;21.93;78.90
3440;BME280;1733;42.286;22.690;2023-05-25T06:43:28;95716.69;;;22.38;76.63
3440;BME280;1733;42.286;22.690;2023-05-25T06:45:56;95717.38;;;22.83;76.27
3440;BME280;1733;42.286;22.690;2023-05-25T06:48:23;95708.19;;;23.06;75.21
3440;BME280;1733;42.286;22.690;2023-05-25T06:50:50;95713.00;;;23.27;74.52
3440;BME280;1733;42.286;22.690;2023-05-25T06:53:17;95705.53;;;23.15;75.41
3440;BME280;1733;42.286;22.690;2023-05-25T06:55:43;95700.19;;;23.15;76.46
3440;BME280;1733;42.286;22.690;2023-05-25T06:58:10;95700.06;;;23.46;75.89
3440;BME280;1733;42.286;22.690;2023-05-25T07:00:39;95692.66;;;24.04;76.68
3440;BME280;1733;42.286;22.690;2023-05-25T07:03:05;95698.25;;;24.63;74.22
3440;BME280;1733;42.286;22.690;2023-05-25T07:05:32;95701.81;;;24.84;71.48
3440;BME280;1733;42.286;22.690;2023-05-25T07:07:59;95704.59;;;25.05;69.91
3440;BME280;1733;42.286;22.690;2023-05-25T07:10:26;95699.75;;;24.81;71.51
3440;BME280;1733;42.286;22.690;2023-05-25T07:12:52;95702.50;;;25.11;68.72
3440;BME280;1733;42.286;22.690;2023-05-25T07:15:19;95698.00;;;24.85;69.17
3440;BME280;1733;42.286;22.690;2023-05-25T07:17:48;95699.75;;;25.19;68.74
3440;BME280;1733;42.286;22.690;2023-05-25T07:20:15;95695.22;;;25.32;65.54
3440;BME280;1733;42.286;22.690;2023-05-25T07:22:42;95689.91;;;25.24;66.14
3440;BME280;1733;42.286;22.690;2023-05-25T07:25:09;95694.22;;;25.16;65.92
3440;BME280;1733;42.286;22.690;2023-05-25T07:27:35;95687.00;;;25.08;64.54
3440;BME280;1733;42.286;22.690;2023-05-25T07:30:05;95688.44;;;25.05;65.88
3440;BME280;1733;42.286;22.690;2023-05-25T07:32:32;95692.19;;;24.75;67.24
3440;BME280;1733;42.286;22.690;2023-05-25T07:35:00;95679.06;;;24.73;68.73
3440;BME280;1733;42.286;22.690;2023-05-25T07:37:27;95682.59;;;24.65;66.54
3440;BME280;1733;42.286;22.690;2023-05-25T07:39:53;95687.41;;;24.80;66.68
3440;BME280;1733;42.286;22.690;2023-05-25T07:42:21;95675.66;;;24.55;67.13
3440;BME280;1733;42.286;22.690;2023-05-25T07:44:48;95677.38;;;24.60;67.60
3440;BME280;1733;42.286;22.690;2023-05-25T07:47:14;95666.16;;;24.87;67.94
3440;BME280;1733;42.286;22.690;2023-05-25T07:49:41;95669.22;;;25.15;65.95
3440;BME280;1733;42.286;22.690;2023-05-25T07:52:10;95669.69;;;25.38;64.82
3440;BME280;1733;42.286;22.690;2023-05-25T07:54:37;95668.91;;;25.38;64.27
3440;BME280;1733;42.286;22.690;2023-05-25T07:57:04;95672.09;;;25.82;60.45
3440;BME280;1733;42.286;22.690;2023-05-25T07:59:32;95672.97;;;26.07;58.59
3440;BME280;1733;42.286;22.690;2023-05-25T08:01:59;95660.66;;;26.51;60.86
3440;BME280;1733;42.286;22.690;2023-05-25T08:04:26;95664.13;;;27.00;59.57
3440;BME280;1733;42.286;22.690;2023-05-25T08:06:53;95661.22;;;27.05;59.12
3440;BME280;1733;42.286;22.690;2023-05-25T08:09:21;95659.41;;;26.61;60.75
3440;BME280;1733;42.286;22.690;2023-05-25T08:11:48;95649.38;;;26.49;60.37
3440;BME280;1733;42.286;22.690;2023-05-25T08:14:15;95650.34;;;26.32;62.63
3440;BME280;1733;42.286;22.690;2023-05-25T08:16:42;95648.03;;;26.55;63.90
3440;BME280;1733;42.286;22.690;2023-05-25T08:19:09;95653.78;;;26.90;62.32
3440;BME280;1733;42.286;22.690;2023-05-25T08:21:35;95654.56;;;26.78;60.23
3440;BME280;1733;42.286;22.690;2023-05-25T08:24:04;95648.16;;;26.46;60.77
3440;BME280;1733;42.286;22.690;2023-05-25T08:26:34;95647.63;;;26.20;61.18
3440;BME280;1733;42.286;22.690;2023-05-25T08:29:01;95650.31;;;25.75;61.89
3440;BME280;1733;42.286;22.690;2023-05-25T08:31:28;95634.97;;;25.25;63.61
3440;BME280;1733;42.286;22.690;2023-05-25T08:33:55;95635.22;;;25.11;63.00
3440;BME280;1733;42.286;22.690;2023-05-25T08:36:23;95633.00;;;25.13;64.06
3440;BME280;1733;42.286;22.690;2023-05-25T08:38:49;95632.41;;;24.99;62.97
3440;BME280;1733;42.286;22.690;2023-05-25T08:41:18;95635.75;;;24.95;63.94
3440;BME280;1733;42.286;22.690;2023-05-25T08:43:46;95642.03;;;24.79;63.66
3440;BME280;1733;42.286;22.690;2023-05-25T08:46:13;95635.59;;;24.71;65.40
3440;BME280;1733;42.286;22.690;2023-05-25T08:48:42;95636.81;;;24.74;64.70
3440;BME280;1733;42.286;22.690;2023-05-25T08:51:12;95626.41;;;24.72;65.69
3440;BME280;1733;42.286;22.690;2023-05-25T08:53:39;95633.25;;;25.20;63.59
3440;BME280;1733;42.286;22.690;2023-05-25T08:56:09;95632.81;;;25.60;62.38
3440;BME280;1733;42.286;22.690;2023-05-25T08:58:43;95643.16;;;26.24;61.51
3440;BME280;1733;42.286;22.690;2023-05-25T09:01:14;95645.81;;;26.69;60.64
3440;BME280;1733;42.286;22.690;2023-05-25T09:03:44;95656.06;;;26.88;58.83
3440;BME280;1733;42.286;22.690;2023-05-25T09:06:12;95661.38;;;27.09;58.76
3440;BME280;1733;42.286;22.690;2023-05-25T09:08:41;95654.78;;;27.35;58.58
3440;BME280;1733;42.286;22.690;2023-05-25T09:11:10;95648.19;;;27.20;58.50
3440;BME280;1733;42.286;22.690;2023-05-25T09:13:38;95641.38;;;26.28;59.18
3440;BME280;1733;42.286;22.690;2023-05-25T09:16:05;95633.03;;;26.21;61.89
3440;BME280;1733;42.286;22.690;2023-05-25T09:18:33;95638.53;;;26.24;60.59
3440;BME280;1733;42.286;22.690;2023-05-25T09:21:00;95639.41;;;26.04;63.44
3440;BME280;1733;42.286;22.690;2023-05-25T09:23:27;95629.09;;;25.85;66.74
3440;BME280;1733;42.286;22.690;2023-05-25T09:25:54;95646.19;;;25.68;67.36
3440;BME280;1733;42.286;22.690;2023-05-25T09:28:21;95642.91;;;24.91;72.92
3440;BME280;1733;42.286;22.690;2023-05-25T09:30:49;95655.25;;;23.55;85.56
3440;BME280;1733;42.286;22.690;2023-05-25T09:33:16;95683.00;;;21.69;85.95
3440;BME280;1733;42.286;22.690;2023-05-25T09:35:44;95698.91;;;20.42;82.40
3440;BME280;1733;42.286;22.690;2023-05-25T09:38:12;95692.06;;;19.89;93.72
3440;BME280;1733;42.286;22.690;2023-05-25T09:40:41;95690.13;;;19.20;100.00
3440;BME280;1733;42.286;22.690;2023-05-25T09:43:10;95690.69;;;18.45;100.00
3440;BME280;1733;42.286;22.690;2023-05-25T09:45:37;95715.66;;;18.20;100.00
3440;BME280;1733;42.286;22.690;2023-05-25T09:48:05;95725.66;;;17.65;100.00
3440;BME280;1733;42.286;22.690;2023-05-25T09:50:32;95727.38;;;17.45;100.00
3440;BME280;1733;42.286;22.690;2023-05-25T09:53:03;95740.69;;;17.40;100.00
3440;BME280;1733;42.286;22.690;2023-05-25T09:55:30;95750.09;;;17.17;100.00
3440;BME280;1733;42.286;22.690;2023-05-25T09:57:56;95754.66;;;17.01;100.00
3440;BME280;1733;42.286;22.690;2023-05-25T10:00:24;95754.16;;;16.99;100.00
3440;BME280;1733;42.286;22.690;2023-05-25T10:02:52;95752.81;;;17.02;100.00
3440;BME280;1733;42.286;22.690;2023-05-25T10:05:20;95756.22;;;17.13;100.00
3440;BME280;1733;42.286;22.690;2023-05-25T10:07:49;95767.63;;;17.23;100.00
3440;BME280;1733;42.286;22.690;2023-05-25T10:10:19;95767.84;;;17.27;100.00
3440;BME280;1733;42.286;22.690;2023-05-25T10:12:47;95776.84;;;17.36;100.00
3440;BME280;1733;42.286;22.690;2023-05-25T10:15:16;95784.03;;;17.36;100.00
3440;BME280;1733;42.286;22.690;2023-05-25T10:17:51;95794.94;;;17.34;100.00
3440;BME280;1733;42.286;22.690;2023-05-25T10:20:20;95804.78;;;17.34;100.00
3440;BME280;1733;42.286;22.690;2023-05-25T10:22:51;95824.19;;;17.29;100.00
3440;BME280;1733;42.286;22.690;2023-05-25T10:25:25;95840.66;;;17.26;100.00
3440;BME280;1733;42.286;22.690;2023-05-25T10:27:56;95853.16;;;17.25;100.00
3440;BME280;1733;42.286;22.690;2023-05-25T10:30:25;95850.00;;;17.18;100.00
3440;BME280;1733;42.286;22.690;2023-05-25T10:32:54;95850.03;;;17.08;100.00
3440;BME280;1733;42.286;22.690;2023-05-25T10:35:21;95838.13;;;16.80;100.00
3440;BME280;1733;42.286;22.690;2023-05-25T10:37:50;95826.94;;;16.58;100.00
3440;BME280;1733;42.286;22.690;2023-05-25T10:40:18;95818.75;;;16.44;100.00
3440;BME280;1733;42.286;22.690;2023-05-25T10:42:48;95825.91;;;16.38;100.00
3440;BME280;1733;42.286;22.690;2023-05-25T10:45:16;95820.34;;;16.50;100.00
3440;BME280;1733;42.286;22.690;2023-05-25T10:47:44;95814.75;;;16.46;100.00
3440;BME280;1733;42.286;22.690;2023-05-25T10:50:18;95812.66;;;16.54;100.00
3440;BME280;1733;42.286;22.690;2023-05-25T10:52:56;95814.22;;;16.55;100.00
3440;BME280;1733;42.286;22.690;2023-05-25T10:55:24;95808.91;;;16.55;100.00
3440;BME280;1733;42.286;22.690;2023-05-25T10:58:08;95803.34;;;16.61;100.00
3440;BME280;1733;42.286;22.690;2023-05-25T11:00:35;95810.75;;;16.69;100.00
3440;BME280;1733;42.286;22.690;2023-05-25T11:03:03;95807.03;;;16.75;100.00
3440;BME280;1733;42.286;22.690;2023-05-25T11:05:37;95813.13;;;16.91;100.00
3440;BME280;1733;42.286;22.690;2023-05-25T11:08:05;95817.63;;;17.06;100.00
3440;BME280;1733;42.286;22.690;2023-05-25T11:10:51;95820.78;;;17.13;100.00
3440;BME280;1733;42.286;22.690;2023-05-25T11:13:38;95815.19;;;17.20;100.00
3440;BME280;1733;42.286;22.690;2023-05-25T11:16:17;95818.09;;;17.28;100.00
3440;BME280;1733;42.286;22.690;2023-05-25T11:18:48;95815.94;;;17.31;100.00
3440;BME280;1733;42.286;22.690;2023-05-25T11:21:21;95810.63;;;17.31;100.00
3440;BME280;1733;42.286;22.690;2023-05-25T11:23:55;95812.47;;;17.40;100.00
3440;BME280;1733;42.286;22.690;2023-05-25T11:26:23;95811.13;;;17.38;100.00
3440;BME280;1733;42.286;22.690;2023-05-25T11:28:53;95815.13;;;17.40;100.00
3440;BME280;1733;42.286;22.690;2023-05-25T11:31:24;95815.66;;;17.37;100.00
3440;BME280;1733;42.286;22.690;2023-05-25T11:33:55;95807.41;;;17.39;100.00
3440;BME280;1733;42.286;22.690;2023-05-25T11:36:27;95811.88;;;17.48;100.00
3440;BME280;1733;42.286;22.690;2023-05-25T11:38:56;95806.25;;;17.55;100.00
3440;BME280;1733;42.286;22.690;2023-05-25T11:41:25;95798.53;;;17.59;100.00
3440;BME280;1733;42.286;22.690;2023-05-25T11:43:55;95794.28;;;17.63;100.00
3440;BME280;1733;42.286;22.690;2023-05-25T11:46:22;95792.47;;;17.53;100.00
3440;BME280;1733;42.286;22.690;2023-05-25T11:48:50;95800.91;;;17.65;100.00
